Time;durP1;ratioP1;P1;durP2;ratioP2;P2;SDS_P1;SDS_P2;PMS_P1;PMS_P2;Temp;Humidity;BMP_temperature;BMP_pressure;BME280_temperature;BME280_humidity;BME280_pressure;Samples;Min_cycle;Max_cycle;Signal;HPM_P1;HPM_P2
2022/01/01 00:03:13;;;;;;;7.63;5.17;;;;;;;14.08;64.15;98759.13;8424616;28;20230;-72
2022/01/01 00:07:16;;;;;;;7.90;5.10;;;;;;;14.18;63.62;98767.34;8417971;28;20234;-72
2022/01/01 00:11:21;;;;;;;10.57;4.97;;;;;;;13.93;64.43;98768.47;8417774;28;20674;-71
2022/01/01 00:15:26;;;;;;;5.60;4.43;;;;;;;14.10;64.18;98772.91;8417272;28;20254;-72
2022/01/01 00:19:31;;;;;;;6.27;4.67;;;;;;;14.12;64.16;98765.88;8417890;28;20233;-72
2022/01/01 00:23:34;;;;;;;7.23;4.77;;;;;;;14.27;63.64;98772.97;8417928;28;20439;-72
2022/01/01 00:27:38;;;;;;;7.27;4.63;;;;;;;14.19;63.41;98769.88;8416651;28;20246;-72
2022/01/01 00:31:41;;;;;;;5.50;4.40;;;;;;;14.19;63.70;98772.50;8417419;28;20265;-72
2022/01/01 00:35:44;;;;;;;6.20;4.80;;;;;;;14.00;64.41;98776.84;8417495;28;20242;-71
2022/01/01 00:39:47;;;;;;;5.33;4.33;;;;;;;14.02;64.19;98767.22;8417297;28;20553;-72
2022/01/01 00:43:52;;;;;;;5.23;4.27;;;;;;;14.06;64.26;98772.19;8448583;28;20271;-72
2022/01/01 00:47:55;;;;;;;6.03;4.67;;;;;;;14.08;64.03;98774.75;8450308;28;20303;-72
2022/01/01 00:51:58;;;;;;;5.53;4.37;;;;;;;14.11;64.28;98782.44;8450513;28;20257;-72
2022/01/01 00:56:00;;;;;;;5.17;4.20;;;;;;;14.10;64.09;98777.28;8450326;28;20245;-72
2022/01/01 01:00:06;;;;;;;5.43;4.03;;;;;;;14.18;63.85;98789.03;8450071;28;20559;-72
2022/01/01 01:04:09;;;;;;;5.97;4.50;;;;;;;14.12;64.09;98796.28;8449463;28;20230;-72
2022/01/01 01:08:14;;;;;;;7.17;4.40;;;;;;;14.19;63.43;98795.94;8450072;28;20395;-72
2022/01/01 01:12:25;;;;;;;5.27;4.03;;;;;;;14.09;63.77;98807.69;8449578;28;20533;-72
2022/01/01 01:16:30;;;;;;;5.10;4.00;;;;;;;14.05;63.77;98799.19;8449097;28;20238;-71
2022/01/01 01:20:33;;;;;;;5.33;3.90;;;;;;;14.02;64.15;98801.91;8448937;28;20238;-72
2022/01/01 01:24:37;;;;;;;4.87;3.90;;;;;;;14.19;63.84;98806.34;8449051;28;20225;-72
2022/01/01 01:28:46;;;;;;;5.40;4.43;;;;;;;14.05;63.80;98800.91;8449061;28;20234;-72
2022/01/01 01:32:50;;;;;;;7.73;3.93;;;;;;;13.94;64.35;98804.03;8448910;28;20232;-72
2022/01/01 01:36:53;;;;;;;4.17;3.67;;;;;;;14.08;63.71;98806.84;8448639;28;20234;-71
2022/01/01 01:40:56;;;;;;;4.40;3.63;;;;;;;14.10;63.81;98808.53;8447858;28;20226;-72
2022/01/01 01:45:01;;;;;;;5.53;3.40;;;;;;;14.18;63.69;98815.06;8449991;28;20230;-72
2022/01/01 01:49:07;;;;;;;5.67;3.67;;;;;;;14.20;63.62;98812.41;8450792;28;20218;-71
2022/01/01 01:53:10;;;;;;;5.10;3.67;;;;;;;14.28;63.45;98815.53;8449143;28;20248;-72
2022/01/01 01:57:13;;;;;;;6.97;3.83;;;;;;;14.16;63.78;98819.50;8448297;28;20238;-72
2022/01/01 02:01:24;;;;;;;5.00;3.80;;;;;;;14.19;63.57;98821.16;8448679;28;20230;-72
2022/01/01 02:05:28;;;;;;;3.93;3.50;;;;;;;14.19;63.63;98811.56;8448133;28;20529;-72
2022/01/01 02:09:31;;;;;;;5.87;3.70;;;;;;;14.09;63.35;98823.31;8447815;28;20233;-72
2022/01/01 02:13:40;;;;;;;3.93;3.20;;;;;;;14.20;63.11;98822.81;8448085;28;20230;-72
2022/01/01 02:17:42;;;;;;;6.07;3.60;;;;;;;14.26;63.00;98823.41;8448017;28;20237;-72
2022/01/01 02:21:47;;;;;;;6.63;3.83;;;;;;;14.19;63.27;98811.56;8447788;28;20533;-72
2022/01/01 02:25:51;;;;;;;5.97;3.00;;;;;;;14.33;63.08;98818.75;8447845;28;20529;-71
2022/01/01 02:29:53;;;;;;;4.80;3.20;;;;;;;14.36;62.63;98821.22;8447996;28;20238;-72
2022/01/01 02:34:03;;;;;;;4.07;3.30;;;;;;;14.26;62.90;98812.97;8448079;28;20230;-72
2022/01/01 02:38:08;;;;;;;3.90;3.23;;;;;;;14.17;63.30;98816.00;8447310;28;20430;-72
2022/01/01 02:42:13;;;;;;;4.00;3.10;;;;;;;14.26;63.02;98820.78;8446841;28;20226;-72
2022/01/01 02:46:16;;;;;;;6.20;3.97;;;;;;;14.12;63.37;98827.53;8447055;28;20236;-72
2022/01/01 02:50:19;;;;;;;5.73;3.60;;;;;;;14.11;63.13;98831.91;8447502;28;20234;-72
2022/01/01 02:54:23;;;;;;;5.67;3.83;;;;;;;14.10;63.10;98834.59;8453996;28;20407;-72
2022/01/01 02:58:27;;;;;;;6.33;3.90;;;;;;;14.13;62.98;98829.25;8453643;28;20446;-72
2022/01/01 03:02:30;;;;;;;6.33;3.87;;;;;;;14.16;63.21;98834.31;8453936;28;20234;-72
2022/01/01 03:06:34;;;;;;;5.87;4.10;;;;;;;14.20;62.78;98836.72;8453761;28;20541;-72
2022/01/01 03:10:38;;;;;;;7.33;3.53;;;;;;;14.29;62.63;98838.03;8453537;28;20234;-72
2022/01/01 03:14:41;;;;;;;4.47;3.63;;;;;;;14.24;62.21;98843.47;8453613;28;20396;-71
2022/01/01 03:18:44;;;;;;;5.80;3.37;;;;;;;14.23;62.21;98843.53;8453531;28;20241;-72
2022/01/01 03:22:47;;;;;;;4.97;3.33;;;;;;;14.22;62.32;98844.44;8453429;28;20237;-72
2022/01/01 03:26:51;;;;;;;5.43;3.10;;;;;;;14.24;62.56;98847.81;8453220;28;20426;-72
2022/01/01 03:30:55;;;;;;;4.37;3.23;;;;;;;14.25;62.67;98846.91;8452795;28;20253;-72
2022/01/01 03:34:58;;;;;;;5.27;3.17;;;;;;;14.01;63.30;98852.31;8452821;28;20256;-72
2022/01/01 03:39:00;;;;;;;7.43;3.43;;;;;;;14.16;62.94;98847.31;8452909;28;20234;-72
2022/01/01 03:43:05;;;;;;;5.13;3.40;;;;;;;14.01;63.09;98847.09;8452694;28;20230;-71
2022/01/01 03:47:09;;;;;;;6.57;3.40;;;;;;;14.04;62.98;98851.31;8485957;28;20225;-72
2022/01/01 03:51:13;;;;;;;6.20;3.47;;;;;;;13.99;63.37;98848.94;8485975;28;20241;-72
2022/01/01 03:55:16;;;;;;;5.37;3.47;;;;;;;13.88;63.24;98836.38;8485880;28;20420;-72
2022/01/01 03:59:21;;;;;;;4.47;3.40;;;;;;;14.15;62.52;98830.03;8485651;28;20244;-72
2022/01/01 04:03:24;;;;;;;3.83;3.10;;;;;;;14.04;62.86;98828.72;8484678;28;20240;-72
2022/01/01 04:07:27;;;;;;;5.07;3.83;;;;;;;14.07;62.69;98835.56;8485945;28;20252;-72
2022/01/01 04:11:30;;;;;;;4.47;3.17;;;;;;;13.98;63.01;98830.78;8485889;28;20542;-72
2022/01/01 04:15:36;;;;;;;4.63;3.00;;;;;;;14.11;62.58;98829.31;8485380;28;20240;-72
2022/01/01 04:19:39;;;;;;;4.50;3.30;;;;;;;14.10;62.46;98831.97;8485188;28;20233;-72
2022/01/01 04:23:45;;;;;;;6.37;3.30;;;;;;;14.20;62.19;98841.06;8485252;28;20564;-72
2022/01/01 04:27:48;;;;;;;5.50;3.30;;;;;;;14.17;62.31;98846.44;8484481;27;20241;-72
2022/01/01 04:31:52;;;;;;;5.33;3.40;;;;;;;14.01;62.80;98846.25;8484449;28;20236;-72
2022/01/01 04:35:55;;;;;;;5.27;3.70;;;;;;;14.14;62.23;98852.59;8484208;28;20229;-72
2022/01/01 04:39:59;;;;;;;5.63;3.90;;;;;;;14.11;62.25;98839.72;8484337;28;20237;-72
2022/01/01 04:44:02;;;;;;;5.67;3.93;;;;;;;14.16;62.07;98840.34;8484142;28;20236;-72
2022/01/01 04:48:06;;;;;;;5.00;3.90;;;;;;;14.02;62.46;98850.56;8484080;28;20236;-72
2022/01/01 04:52:13;;;;;;;5.70;4.17;;;;;;;14.07;62.51;98838.19;8483563;28;20225;-72
2022/01/01 04:56:19;;;;;;;4.93;3.43;;;;;;;13.98;62.47;98849.00;8483880;28;20259;-72
2022/01/01 05:00:22;;;;;;;5.17;3.40;;;;;;;13.98;62.10;98838.59;8483550;28;20241;-72
2022/01/01 05:04:27;;;;;;;5.33;3.50;;;;;;;14.21;62.07;98847.97;8483371;28;20249;-72
2022/01/01 05:08:30;;;;;;;6.97;3.77;;;;;;;13.97;62.62;98861.16;8483099;28;20236;-72
2022/01/01 05:12:33;;;;;;;5.03;3.60;;;;;;;14.08;62.36;98855.47;8483361;28;20233;-72
2022/01/01 05:16:36;;;;;;;5.00;3.60;;;;;;;14.09;62.11;98865.00;8483111;28;20229;-72
2022/01/01 05:20:41;;;;;;;6.47;3.73;;;;;;;14.22;62.09;98873.97;8482810;28;20240;-72
2022/01/01 05:24:43;;;;;;;4.60;3.40;;;;;;;14.17;61.91;98870.72;8483116;28;20233;-72
2022/01/01 05:28:49;;;;;;;4.70;3.87;;;;;;;14.06;62.46;98876.38;8482881;28;20244;-72
2022/01/01 05:32:52;;;;;;;5.60;3.77;;;;;;;14.01;62.42;98880.09;8482893;28;20229;-72
2022/01/01 05:36:56;;;;;;;6.63;4.00;;;;;;;14.00;62.76;98874.06;8482717;28;20229;-72
2022/01/01 05:41:00;;;;;;;5.33;4.03;;;;;;;14.18;61.51;98871.53;8482401;28;20481;-72
2022/01/01 05:45:03;;;;;;;6.33;4.60;;;;;;;14.11;61.95;98870.97;8482696;28;20233;-72
2022/01/01 05:49:06;;;;;;;7.57;4.27;;;;;;;14.14;61.70;98876.03;8481970;28;20595;-72
2022/01/01 05:53:11;;;;;;;5.30;4.00;;;;;;;14.21;61.56;98874.03;8481641;28;20225;-72
2022/01/01 05:57:13;;;;;;;7.20;3.57;;;;;;;14.19;61.72;98876.69;8481749;28;20229;-72
2022/01/01 06:01:17;;;;;;;7.77;4.37;;;;;;;14.20;61.82;98885.34;8481939;28;20243;-72
2022/01/01 06:05:20;;;;;;;6.10;4.60;;;;;;;14.13;61.51;98881.34;8481233;28;20248;-72
2022/01/01 06:09:24;;;;;;;6.60;4.83;;;;;;;14.07;61.85;98888.50;8481581;28;20244;-72
2022/01/01 06:13:30;;;;;;;5.30;4.60;;;;;;;14.04;62.00;98875.59;8481636;28;20243;-72
2022/01/01 06:17:33;;;;;;;6.63;5.10;;;;;;;14.00;61.78;98868.00;8481596;28;20253;-72
2022/01/01 06:21:36;;;;;;;5.27;4.77;;;;;;;13.99;61.90;98872.38;8481173;28;20244;-72
2022/01/01 06:25:40;;;;;;;6.20;4.80;;;;;;;14.05;61.84;98866.91;8480758;28;20245;-72
2022/01/01 06:29:45;;;;;;;8.07;5.77;;;;;;;14.00;61.62;98878.44;8480878;28;20544;-72
2022/01/01 06:33:48;;;;;;;6.00;5.30;;;;;;;13.99;61.86;98884.53;8480435;28;20226;-72
2022/01/01 06:37:52;;;;;;;5.93;5.33;;;;;;;14.02;61.88;98885.25;8480301;28;20229;-72
2022/01/01 06:41:56;;;;;;;6.50;4.70;;;;;;;13.98;62.05;98896.72;8479966;28;20233;-72
2022/01/01 06:45:59;;;;;;;5.27;4.77;;;;;;;14.12;61.71;98903.06;8480145;28;20261;-72
2022/01/01 06:50:02;;;;;;;7.30;4.63;;;;;;;14.01;61.61;98913.94;8480096;28;20556;-72
2022/01/01 06:54:05;;;;;;;6.33;5.10;;;;;;;14.05;61.53;98918.97;8480005;28;20237;-72
2022/01/01 06:58:10;;;;;;;7.23;5.27;;;;;;;14.14;61.62;98922.09;8445617;28;20233;-73
2022/01/01 07:02:12;;;;;;;8.40;5.27;;;;;;;14.13;61.32;98923.03;8445712;28;20241;-72
2022/01/01 07:06:16;;;;;;;6.57;4.87;;;;;;;14.15;61.52;98936.81;8445857;28;20234;-72
2022/01/01 07:10:19;;;;;;;7.40;5.50;;;;;;;13.90;61.74;98927.47;8446118;28;20233;-72
2022/01/01 07:14:23;;;;;;;6.03;4.90;;;;;;;14.02;61.50;98937.34;8446183;28;20238;-72
2022/01/01 07:18:27;;;;;;;7.43;4.70;;;;;;;14.02;61.33;98939.94;8445184;28;20242;-72
2022/01/01 07:22:30;;;;;;;5.63;4.43;;;;;;;14.06;61.44;98943.25;8445825;28;20230;-72
2022/01/01 07:26:38;;;;;;;6.60;4.67;;;;;;;14.11;61.25;98956.94;8445862;28;20230;-72
2022/01/01 07:30:42;;;;;;;6.30;4.43;;;;;;;14.03;61.43;98957.28;8445519;28;20506;-72
2022/01/01 07:34:45;;;;;;;5.40;4.33;;;;;;;14.07;61.17;98952.78;8445185;28;20238;-72
2022/01/01 07:38:48;;;;;;;5.50;4.03;;;;;;;14.15;61.10;98952.44;8447777;28;20252;-72
2022/01/01 07:42:51;;;;;;;6.50;4.40;;;;;;;14.11;60.89;98948.25;8451677;28;20575;-72
2022/01/01 07:46:57;;;;;;;6.10;4.47;;;;;;;14.21;60.75;98963.44;8451635;28;20545;-72
2022/01/01 07:51:00;;;;;;;5.73;4.13;;;;;;;14.17;60.80;98961.88;8451278;28;20306;-72
2022/01/01 07:55:04;;;;;;;5.97;4.60;;;;;;;14.16;60.52;98959.34;8451078;28;20229;-72
2022/01/01 07:59:07;;;;;;;8.10;5.33;;;;;;;14.14;60.80;98954.19;8451034;28;20226;-72
2022/01/01 08:03:13;;;;;;;5.17;4.53;;;;;;;13.95;61.00;98959.34;8450042;28;20237;-72
2022/01/01 08:07:16;;;;;;;5.80;4.50;;;;;;;14.07;60.81;98955.38;8450962;28;20230;-72
2022/01/01 08:11:39;;;;;;;6.07;4.70;;;;;;;14.07;61.05;98955.38;8450358;28;20226;-72
2022/01/01 08:15:41;;;;;;;10.73;6.57;;;;;;;14.11;60.72;98958.69;8450686;28;20230;-72
2022/01/01 08:19:46;;;;;;;5.87;4.63;;;;;;;14.19;60.88;98964.41;8450212;28;20242;-72
2022/01/01 08:23:49;;;;;;;5.90;4.17;;;;;;;14.12;60.86;98961.22;8449952;28;20230;-72
2022/01/01 08:27:52;;;;;;;5.73;4.47;;;;;;;14.14;60.66;98963.75;8450133;28;20437;-72
2022/01/01 08:31:56;;;;;;;5.30;4.73;;;;;;;14.20;60.47;98969.56;8450401;28;20240;-72
2022/01/01 08:36:03;;;;;;;5.67;4.50;;;;;;;14.16;61.04;98961.94;8450289;28;20233;-72
2022/01/01 08:40:07;;;;;;;6.40;4.73;;;;;;;14.14;60.75;98959.41;8449758;28;20233;-72
2022/01/01 08:44:10;;;;;;;5.70;4.30;;;;;;;14.27;60.93;98970.97;8449161;28;20226;-72
2022/01/01 08:48:13;;;;;;;5.50;4.17;;;;;;;14.29;60.54;98970.91;8449113;28;20230;-72
2022/01/01 08:52:17;;;;;;;5.30;4.10;;;;;;;14.31;60.77;98963.03;8449280;28;20238;-72
2022/01/01 08:56:20;;;;;;;6.63;4.20;;;;;;;14.31;60.45;98960.44;8449058;28;20230;-72
2022/01/01 09:00:23;;;;;;;6.20;4.47;;;;;;;14.25;60.22;98962.38;8448576;28;20540;-72
2022/01/01 09:04:26;;;;;;;7.40;4.70;;;;;;;14.40;60.32;98978.28;8448947;28;20245;-72
2022/01/01 09:08:32;;;;;;;6.27;4.57;;;;;;;14.38;60.45;98970.53;8448229;28;20246;-72
2022/01/01 09:12:35;;;;;;;8.70;4.60;;;;;;;14.42;60.49;98981.66;8448337;28;20234;-72
2022/01/01 09:16:38;;;;;;;5.00;4.30;;;;;;;14.47;60.47;98997.94;8448547;28;20544;-72
2022/01/01 09:20:41;;;;;;;7.97;5.20;;;;;;;14.51;60.66;98998.63;8447963;28;20574;-72
2022/01/01 09:24:46;;;;;;;8.17;5.60;;;;;;;14.55;60.02;99006.25;8448071;28;20245;-72
2022/01/01 09:28:49;;;;;;;6.60;5.53;;;;;;;14.61;60.31;99011.22;8448066;28;20246;-72
2022/01/01 09:32:52;;;;;;;7.80;4.57;;;;;;;14.56;59.94;99004.50;8448129;28;20234;-72
2022/01/01 09:36:56;;;;;;;6.73;4.40;;;;;;;14.56;60.00;99007.09;8448002;28;20226;-72
2022/01/01 09:41:01;;;;;;;6.50;3.63;;;;;;;14.55;59.86;99011.47;8447549;28;20234;-72
2022/01/01 09:45:06;;;;;;;5.97;3.70;;;;;;;14.65;59.78;99010.19;8447846;28;20226;-72
2022/01/01 09:49:09;;;;;;;5.40;3.70;;;;;;;14.65;59.91;99001.53;8447232;28;20226;-72
2022/01/01 09:53:12;;;;;;;6.90;3.30;;;;;;;14.64;59.55;99007.63;8447376;28;20537;-72
2022/01/01 09:57:16;;;;;;;5.77;3.40;;;;;;;14.82;59.45;99014.66;8447101;28;20304;-72
2022/01/01 10:01:19;;;;;;;7.57;3.60;;;;;;;14.58;59.28;99014.00;8446445;28;20234;-72
2022/01/01 10:05:22;;;;;;;5.60;3.33;;;;;;;14.74;59.37;99008.09;8447507;28;20245;-72
2022/01/01 10:09:31;;;;;;;6.53;3.50;;;;;;;14.72;59.01;99000.34;8446604;28;20253;-72
2022/01/01 10:13:37;;;;;;;7.13;3.60;;;;;;;14.77;59.55;99011.38;8446830;28;20230;-72
2022/01/01 10:17:41;;;;;;;7.53;3.80;;;;;;;14.70;59.16;99006.50;8447157;28;20229;-72
2022/01/01 10:21:50;;;;;;;6.50;3.60;;;;;;;14.81;58.70;98997.31;8446968;28;20244;-72
2022/01/01 10:30:22;;;;;;;5.33;3.03;;;;;;;14.92;58.79;99003.81;8380640;28;20242;-72
2022/01/01 10:34:27;;;;;;;6.63;3.47;;;;;;;14.83;59.27;99003.31;8446715;28;20556;-72
2022/01/01 10:38:31;;;;;;;5.60;3.50;;;;;;;14.94;58.77;98994.97;8446415;28;20405;-72
2022/01/01 10:42:34;;;;;;;5.50;3.20;;;;;;;15.02;58.80;98995.50;8445986;28;20242;-72
2022/01/01 10:46:39;;;;;;;4.70;3.30;;;;;;;14.92;58.92;98991.59;8446415;28;20236;-72
2022/01/01 10:50:43;;;;;;;4.60;3.30;;;;;;;14.87;58.79;98996.19;8445808;28;20308;-72
2022/01/01 10:54:54;;;;;;;7.83;3.47;;;;;;;14.92;58.64;98993.38;8445756;28;20536;-72
2022/01/01 10:59:00;;;;;;;7.23;3.03;;;;;;;14.96;58.41;98984.47;8445941;28;20296;-72
2022/01/01 11:03:04;;;;;;;6.47;3.60;;;;;;;15.02;58.22;98981.59;8446088;28;20390;-72
2022/01/01 11:07:07;;;;;;;5.53;3.30;;;;;;;15.08;58.40;98978.72;8445265;28;20226;-73
2022/01/01 11:11:10;;;;;;;7.10;3.77;;;;;;;15.00;58.52;98976.47;8445540;28;20248;-72
2022/01/01 11:15:13;;;;;;;5.37;3.30;;;;;;;15.15;58.25;98984.47;8452379;28;20230;-72
2022/01/01 11:19:19;;;;;;;6.13;4.57;;;;;;;15.18;58.10;98987.78;8452158;28;20419;-72
2022/01/01 11:23:22;;;;;;;10.30;7.80;;;;;;;15.16;58.35;98986.19;8452162;28;20242;-72
2022/01/01 11:27:25;;;;;;;6.77;5.80;;;;;;;15.23;58.09;98977.13;8451700;28;20241;-72
2022/01/01 11:31:28;;;;;;;10.53;9.07;;;;;;;15.31;58.28;98976.78;8452122;28;20229;-72
2022/01/01 11:35:35;;;;;;;9.97;7.73;;;;;;;15.27;57.65;98977.81;8452123;28;20546;-72
2022/01/01 11:39:40;;;;;;;5.70;3.50;;;;;;;15.44;57.40;98970.06;8451662;28;20241;-72
2022/01/01 11:43:45;;;;;;;7.00;3.37;;;;;;;15.40;57.19;98969.34;8451712;28;20510;-72
2022/01/01 11:47:50;;;;;;;6.50;4.03;;;;;;;15.22;56.59;98971.06;8451505;28;20512;-72
2022/01/01 11:51:55;;;;;;;5.37;3.07;;;;;;;15.40;57.01;98961.53;8451610;28;20238;-72
2022/01/01 11:56:05;;;;;;;5.27;3.50;;;;;;;15.32;56.67;98963.66;8451274;28;20639;-72
2022/01/01 12:00:13;;;;;;;10.07;6.53;;;;;;;15.33;57.08;98946.25;8484483;28;20229;-73
2022/01/01 12:04:23;;;;;;;6.23;3.67;;;;;;;15.33;56.98;98947.06;8484645;28;20241;-72
2022/01/01 12:08:41;;;;;;;6.90;3.80;;;;;;;15.36;55.33;98943.47;8484270;28;20234;-72
2022/01/01 12:12:47;;;;;;;5.30;4.00;;;;;;;15.52;56.64;98940.97;8484329;28;20252;-72
2022/01/01 12:16:51;;;;;;;7.47;3.63;;;;;;;15.51;56.70;98947.09;8484028;28;20229;-72
2022/01/01 12:21:01;;;;;;;6.53;3.90;;;;;;;15.54;56.30;98944.34;8483669;28;20335;-72
2022/01/01 12:25:08;;;;;;;8.10;4.67;;;;;;;15.41;55.98;98937.09;8482493;28;20229;-72
2022/01/01 12:29:11;;;;;;;5.33;3.93;;;;;;;15.69;55.75;98929.66;8483234;28;20524;-72
2022/01/01 12:33:25;;;;;;;6.47;3.17;;;;;;;15.69;55.69;98937.50;8483376;28;20366;-73
2022/01/01 12:37:36;;;;;;;4.53;2.70;;;;;;;15.62;54.23;98929.16;8483917;28;20356;-73
2022/01/01 12:41:41;;;;;;;5.37;2.60;;;;;;;15.64;53.57;98919.47;8483401;28;20237;-73
2022/01/01 12:45:50;;;;;;;4.37;2.30;;;;;;;15.66;53.25;98915.00;8483215;28;20244;-73
2022/01/01 12:49:54;;;;;;;5.83;2.20;;;;;;;15.95;52.90;98910.09;8483250;28;20230;-73
2022/01/01 12:53:59;;;;;;;4.43;2.10;;;;;;;15.92;52.12;98905.91;8483221;28;20237;-73
2022/01/01 12:58:09;;;;;;;4.13;1.90;;;;;;;15.79;52.14;98907.44;8482964;28;20229;-73
2022/01/01 13:02:14;;;;;;;4.37;1.90;;;;;;;15.77;52.61;98911.91;8456472;28;20233;-73
2022/01/01 13:06:25;;;;;;;3.60;1.90;;;;;;;15.64;51.06;98919.47;8449063;28;20241;-73
2022/01/01 13:10:30;;;;;;;4.40;1.80;;;;;;;15.61;51.28;98917.88;8449197;28;20397;-73
2022/01/01 13:14:36;;;;;;;5.70;2.30;;;;;;;15.61;52.06;98917.00;8449011;28;20234;-73
2022/01/01 13:18:39;;;;;;;5.00;2.33;;;;;;;15.60;52.18;98916.16;8448742;28;20226;-73
2022/01/01 13:22:42;;;;;;;7.00;2.30;;;;;;;15.58;51.26;98918.00;8448761;28;20242;-72
2022/01/01 13:26:46;;;;;;;4.00;2.20;;;;;;;15.65;52.26;98913.34;8448589;28;20307;-73
2022/01/01 13:30:50;;;;;;;5.57;2.10;;;;;;;15.59;51.36;98911.88;8447946;28;20234;-73
2022/01/01 13:34:53;;;;;;;4.80;2.00;;;;;;;15.55;51.99;98912.94;8447506;28;20242;-73
2022/01/01 13:38:57;;;;;;;4.93;2.57;;;;;;;15.57;51.80;98903.28;8447689;28;20471;-73
2022/01/01 13:43:08;;;;;;;5.40;3.87;;;;;;;15.67;51.59;98892.34;8447605;28;20234;-73
2022/01/01 13:47:14;;;;;;;5.23;2.33;;;;;;;15.68;51.45;98896.66;8447022;28;20233;-73
2022/01/01 13:51:20;;;;;;;3.97;2.03;;;;;;;15.69;51.63;98887.88;8447536;28;20230;-73
2022/01/01 13:55:26;;;;;;;5.60;2.40;;;;;;;15.58;51.60;98884.06;8447698;28;20234;-73
2022/01/01 13:59:29;;;;;;;4.73;2.10;;;;;;;15.70;51.33;98885.22;8447377;28;20504;-73
2022/01/01 14:03:35;;;;;;;5.53;1.90;;;;;;;15.61;51.68;98883.06;8447151;28;20521;-73
2022/01/01 14:07:38;;;;;;;7.00;3.57;;;;;;;15.61;52.35;98885.66;8447060;28;20287;-73
2022/01/01 14:11:41;;;;;;;6.83;3.77;;;;;;;15.59;52.29;98877.94;8446941;28;20571;-73
2022/01/01 14:15:44;;;;;;;4.10;2.93;;;;;;;15.57;52.16;98874.56;8446988;28;20537;-73
2022/01/01 14:19:48;;;;;;;4.77;2.40;;;;;;;15.59;51.69;98877.94;8446836;28;20416;-73
2022/01/01 14:23:54;;;;;;;4.87;2.17;;;;;;;15.58;52.27;98886.69;8446980;28;20529;-73
2022/01/01 14:28:00;;;;;;;3.77;1.87;;;;;;;15.59;52.69;98877.06;8446103;28;20242;-72
2022/01/01 14:32:04;;;;;;;5.37;2.10;;;;;;;15.52;52.35;98892.22;8446492;28;20238;-73
2022/01/01 14:36:10;;;;;;;8.10;2.50;;;;;;;15.40;52.16;98893.66;8445279;28;20234;-72
2022/01/01 14:40:13;;;;;;;4.77;2.40;;;;;;;15.37;52.61;98890.38;8445279;28;20326;-72
2022/01/01 14:44:16;;;;;;;4.57;2.47;;;;;;;15.39;52.06;98899.78;8444657;28;20529;-72
2022/01/01 14:48:31;;;;;;;6.30;2.10;;;;;;;15.37;52.01;98896.41;8444365;28;20427;-72
2022/01/01 14:52:45;;;;;;;6.87;2.50;;;;;;;15.31;51.83;98896.72;8443935;28;20238;-72
2022/01/01 14:56:57;;;;;;;3.53;1.90;;;;;;;15.27;52.45;98892.59;8444332;28;20237;-72
2022/01/01 15:01:00;;;;;;;3.53;2.00;;;;;;;15.24;52.59;98892.72;8444186;28;20410;-71
2022/01/01 15:05:05;;;;;;;3.93;2.00;;;;;;;15.13;52.08;98889.78;8444310;28;20238;-72
2022/01/01 15:09:10;;;;;;;4.50;1.80;;;;;;;15.14;52.59;98888.88;8444271;28;20359;-72
2022/01/01 15:13:13;;;;;;;4.03;1.90;;;;;;;15.12;52.36;98891.56;8444396;28;20241;-72
2022/01/01 15:17:16;;;;;;;3.47;1.90;;;;;;;15.08;52.59;98884.81;8444109;28;20229;-72
2022/01/01 15:21:31;;;;;;;4.40;2.27;;;;;;;15.06;52.58;98894.47;8443590;28;20253;-72
2022/01/01 15:25:36;;;;;;;3.87;2.27;;;;;;;14.91;52.78;98896.03;8443201;28;20234;-72
2022/01/01 15:29:47;;;;;;;4.23;2.13;;;;;;;14.83;53.41;98890.31;8444068;28;20234;-72
2022/01/01 15:33:53;;;;;;;5.03;2.40;;;;;;;14.74;53.60;98888.16;8443647;28;20234;-72
2022/01/01 15:38:04;;;;;;;6.13;3.60;;;;;;;14.63;53.43;98884.28;8443739;28;20230;-72
2022/01/01 15:42:21;;;;;;;4.50;3.27;;;;;;;14.64;53.76;98880.75;8443221;28;20234;-72
2022/01/01 15:46:24;;;;;;;6.83;3.73;;;;;;;14.63;54.61;98884.28;8442825;28;20218;-72
2022/01/01 15:50:27;;;;;;;6.17;4.00;;;;;;;14.55;54.89;98886.38;8443561;28;20380;-72
2022/01/01 15:54:30;;;;;;;8.43;4.70;;;;;;;14.44;54.65;98875.59;8443931;28;20230;-73
2022/01/01 15:58:45;;;;;;;8.33;5.47;;;;;;;14.40;55.00;98867.06;8445908;28;20233;-72
2022/01/01 16:02:54;;;;;;;8.93;5.73;;;;;;;14.32;54.94;98861.38;8450528;28;20238;-72
2022/01/01 16:07:05;;;;;;;9.03;5.83;;;;;;;14.21;54.51;98859.22;8450009;28;20234;-72
2022/01/01 16:11:10;;;;;;;8.50;5.13;;;;;;;14.11;55.05;98854.50;8449449;28;20525;-73
2022/01/01 16:15:15;;;;;;;8.97;5.10;;;;;;;14.08;55.58;98847.66;8449901;28;20234;-72
2022/01/01 16:19:19;;;;;;;8.00;5.80;;;;;;;14.03;55.25;98840.06;8449517;28;20240;-72
2022/01/01 16:23:23;;;;;;;18.10;11.47;;;;;;;14.03;55.58;98834.00;8449456;28;20555;-72
2022/01/01 16:27:27;;;;;;;14.73;9.80;;;;;;;13.95;55.59;98841.31;8449085;28;20237;-72
2022/01/01 16:31:31;;;;;;;9.67;6.43;;;;;;;13.88;55.60;98836.38;8448687;28;20238;-72
2022/01/01 16:35:37;;;;;;;11.30;6.27;;;;;;;13.86;55.33;98837.38;8448694;28;20234;-72
2022/01/01 16:39:44;;;;;;;9.83;6.70;;;;;;;13.79;55.82;98838.53;8448801;28;20234;-72
2022/01/01 16:43:56;;;;;;;11.37;7.37;;;;;;;13.78;55.32;98831.63;8448035;28;20233;-72
2022/01/01 16:48:05;;;;;;;9.47;7.80;;;;;;;13.53;56.51;98837.06;8448376;28;20572;-73
2022/01/01 16:52:14;;;;;;;10.07;8.57;;;;;;;13.51;56.54;98839.72;8447421;28;20237;-72
2022/01/01 16:56:20;;;;;;;24.57;19.20;;;;;;;13.55;56.36;98827.44;8447610;28;20237;-72
2022/01/01 17:00:23;;;;;;;27.43;21.50;;;;;;;13.38;56.92;98828.13;8447613;28;20541;-72
2022/01/01 17:04:32;;;;;;;21.43;16.37;;;;;;;13.47;56.84;98830.34;8447087;28;20234;-72
2022/01/01 17:08:37;;;;;;;18.10;14.77;;;;;;;13.43;56.63;98834.00;8447491;28;20241;-72
2022/01/01 17:12:40;;;;;;;17.03;11.70;;;;;;;13.42;56.78;98835.78;8447555;28;20230;-72
2022/01/01 17:16:51;;;;;;;13.93;11.60;;;;;;;13.42;56.71;98825.34;8447977;28;20242;-72
2022/01/01 17:20:57;;;;;;;14.83;11.73;;;;;;;13.38;56.99;98825.53;8447709;28;20318;-72
2022/01/01 17:25:07;;;;;;;13.67;10.90;;;;;;;13.39;57.12;98815.06;8446991;28;20238;-72
2022/01/01 17:29:10;;;;;;;20.27;15.93;;;;;;;13.39;57.02;98809.03;8447151;28;20246;-72
2022/01/01 17:33:21;;;;;;;16.47;13.23;;;;;;;13.32;57.08;98805.00;8447464;28;20241;-72
2022/01/01 17:37:40;;;;;;;19.37;15.73;;;;;;;13.34;57.18;98804.00;8447323;28;20230;-72
2022/01/01 17:41:46;;;;;;;23.50;17.20;;;;;;;13.14;56.74;98798.78;8433491;28;20241;-72
2022/01/01 17:45:53;;;;;;;20.90;16.27;;;;;;;13.18;56.79;98800.34;8413640;28;20241;-72
2022/01/01 17:50:07;;;;;;;21.13;15.30;;;;;;;13.16;56.85;98804.75;8413465;28;20234;-72
2022/01/01 17:54:12;;;;;;;16.40;12.80;;;;;;;13.03;56.99;98801.81;8412945;28;20521;-72
2022/01/01 17:58:16;;;;;;;14.60;11.53;;;;;;;13.04;56.92;98801.75;8412969;28;20231;-72
2022/01/01 18:02:20;;;;;;;12.43;10.70;;;;;;;12.98;56.97;98785.53;8412636;28;20241;-72
2022/01/01 18:06:27;;;;;;;13.80;10.83;;;;;;;12.97;57.08;98786.47;8412776;28;20235;-72
2022/01/01 18:10:34;;;;;;;13.20;10.90;;;;;;;12.84;56.76;98781.75;8412954;28;20238;-72
2022/01/01 18:14:39;;;;;;;13.23;10.60;;;;;;;12.87;56.78;98788.56;8412665;28;20238;-72
2022/01/01 18:18:49;;;;;;;13.07;11.37;;;;;;;12.73;57.16;98789.13;8412763;28;20237;-72
2022/01/01 18:22:54;;;;;;;16.43;11.80;;;;;;;12.73;57.70;98788.31;8411717;28;20251;-72
2022/01/01 18:27:10;;;;;;;18.60;14.67;;;;;;;12.70;56.94;98784.91;8411953;28;20466;-72
2022/01/01 18:31:16;;;;;;;15.73;12.73;;;;;;;12.67;57.17;98786.78;8410619;28;20254;-72
2022/01/01 18:35:20;;;;;;;16.67;13.47;;;;;;;12.64;57.18;98789.50;8411285;28;20241;-72
2022/01/01 18:39:24;;;;;;;17.30;14.97;;;;;;;12.56;57.02;98799.34;8410955;28;20234;-72
2022/01/01 18:43:31;;;;;;;19.90;16.87;;;;;;;12.54;56.96;98801.19;8439117;28;20360;-72
2022/01/01 18:47:34;;;;;;;23.03;19.63;;;;;;;12.56;57.38;98805.41;8444715;28;20241;-72
2022/01/01 18:51:38;;;;;;;25.87;21.33;;;;;;;12.33;57.43;98809.72;8444764;28;20239;-72
2022/01/01 18:55:42;;;;;;;42.63;37.20;;;;;;;12.10;58.51;98802.81;8445002;28;20238;-71
2022/01/01 18:59:50;;;;;;;28.33;25.33;;;;;;;12.17;57.81;98800.84;8445006;28;20243;-72
2022/01/01 19:03:57;;;;;;;26.30;23.13;;;;;;;12.39;57.80;98807.81;8444659;28;20264;-72
2022/01/01 19:08:01;;;;;;;26.77;21.97;;;;;;;12.38;57.20;98800.94;8444921;28;20237;-72
2022/01/01 19:12:05;;;;;;;31.83;28.20;;;;;;;12.25;57.07;98800.53;8444896;28;20494;-72
2022/01/01 19:16:10;;;;;;;32.83;27.77;;;;;;;12.23;57.12;98800.59;8444516;28;20230;-72